Flight Track Log - Related Links

Times and Time Zones

All times are in EDT time to prevent confusion due to time zone crossing. See the AAL1249 flight status page for this flight to view local times or setup timezone preferences in your user account.

Time Position Orientation Groundspeed Altitude Reporting Facility
EDT Latitude Longitude Course Direction KTS MPH feet Rate Location/Type
Fri 10:56:41 AM 25.7983 -80.2631 318° Northwest 170 196 800  Level Miami Center
Fri 10:57:49 AM 25.8061 -80.2008 82° East 205 236 2,600 1,674 Climbing Miami Center
Fri 10:58:50 AM 25.8472 -80.1442 307° West 275 316 4,400 2,279 Climbing Miami Center
Fri 10:59:00 AM 26.0143 -80.5568 314° West  Level FlightAware Approximate
Fri 10:59:00 AM 25.8687 -80.3344 307° West  Level Estimated
Fri 10:59:58 AM 25.9064 -80.2036 318° Northwest 271 312 7,500  Level Miami Center
Fri 11:00:00 AM 26.0960 -80.6460 318° Northwest  Level FlightAware Approximate
Fri 11:00:58 AM 25.9336 -80.2875 290° West 290 334 10,600  Level Miami Center
Fri 11:01:00 AM 26.1812 -80.7312 318° Northwest  Level FlightAware Approximate
Fri 11:01:58 AM 25.9650 -80.3694 293° West 301 346 13,500  Level Miami Center
Fri 11:02:58 AM 26.0089 -80.4631 298° West 312 359 15,400 2,100 Climbing Miami Center
Fri 11:03:58 AM 26.0544 -80.5617 297° West 329 379 17,700 2,200 Climbing Miami Center
Fri 11:04:58 AM 26.1125 -80.6606 303° West 358 412 19,800 2,200 Climbing Miami Center
Fri 11:05:58 AM 26.1936 -80.7442 317° Northwest 376 433 22,100 2,200 Climbing Miami Center
Fri 11:06:58 AM 26.2708 -80.8300 315° West 381 438 24,200 1,950 Climbing Miami Center
Fri 11:07:58 AM 26.3564 -80.9117 319° Northwest 410 472 26,000 1,600 Climbing Miami Center
Fri 11:08:58 AM 26.4544 -80.9847 326° Northwest 421 484 27,400 1,000 Climbing Miami Center
Fri 11:09:58 AM 26.5508 -81.0436 331° Northwest 426 490 28,000 300 Climbing Miami Center
Fri 11:10:58 AM 26.6575 -81.1150 329° Northwest 440 506 28,000  Level Miami Center
Fri 11:11:58 AM 26.7639 -81.1864 329° Northwest 440 506 28,000 -50 Level Miami Center
Fri 11:12:58 AM 26.8683 -81.2575 329° Northwest 440 506 27,900  Descending Miami Center
Fri 11:13:58 AM 26.9747 -81.3292 329° Northwest 440 506 28,000 50 Climbing Miami Center
Fri 11:14:58 AM 27.0831 -81.4011 329° Northwest 440 506 28,000  Level Miami Center
Fri 11:15:58 AM 27.1914 -81.4728 330° Northwest 440 506 28,000  Level Miami Center
Fri 11:16:58 AM 27.3078 -81.5522 329° Northwest 440 506 28,000  Level Miami Center
Fri 11:17:58 AM 27.4139 -81.6244 329° Northwest 445 512 28,000  Level Miami Center
Fri 11:18:58 AM 27.5222 -81.6992 329° Northwest 440 506 28,000  Level Miami Center
Fri 11:19:58 AM 27.6181 -81.7642 329° Northwest 440 506 28,000  Level Miami Center
Fri 11:20:58 AM 27.7219 -81.8367 328° Northwest 445 512 28,000  Level Miami Center
Fri 11:21:58 AM 27.8300 -81.9072 330° Northwest 440 506 28,000  Level Miami Center
Fri 11:24:03 AM 28.0597 -82.0789 327° Northwest 448 516 28,000  Level Jacksonville Center
Fri 11:25:03 AM 28.1478 -82.1581 322° Northwest 457 526 28,000  Level Jacksonville Center
Fri 11:26:03 AM 28.2483 -82.2469 322° Northwest 457 526 28,000  Level Jacksonville Center
Fri 11:27:03 AM 28.3469 -82.3383 321° Northwest 457 526 28,000  Level Jacksonville Center
Fri 11:28:03 AM 28.4475 -82.4275 322° Northwest 457 526 28,000  Level Jacksonville Center
Fri 11:29:03 AM 28.5481 -82.5169 322° Northwest 457 526 28,000 -50 Level Jacksonville Center
Fri 11:30:03 AM 28.6483 -82.6086 321° Northwest 457 526 27,900 -50 Descending Jacksonville Center
Fri 11:31:03 AM 28.7550 -82.7056 321° Northwest 452 520 27,900  Level Jacksonville Center
Fri 11:32:03 AM 28.8553 -82.7953 322° Northwest 452 520 27,900 50 Level Jacksonville Center
Fri 11:33:03 AM 28.9556 -82.8878 321° Northwest 452 520 28,000  Climbing Jacksonville Center
Fri 11:34:03 AM 29.0556 -82.9781 322° Northwest 457 526 27,900 -50 Descending Jacksonville Center
Fri 11:35:03 AM 29.1558 -83.0686 322° Northwest 457 526 27,900 50 Level Jacksonville Center
Fri 11:36:03 AM 29.2558 -83.1617 321° Northwest 452 520 28,000 550 Climbing Jacksonville Center
Fri 11:37:03 AM 29.3536 -83.2547 320° Northwest 457 526 29,000 1,750 Climbing Jacksonville Center
Fri 11:38:03 AM 29.4514 -83.3433 322° Northwest 457 526 31,500 1,500 Climbing Jacksonville Center
Fri 11:39:03 AM 29.5492 -83.4344 321° Northwest 452 520 32,000 150 Climbing Jacksonville Center
Fri 11:40:03 AM 29.6281 -83.5378 311° West 447 514 31,800 -600 Descending Jacksonville Center
Fri 11:41:03 AM 29.6797 -83.6672 295° West 440 506 30,800 -900 Descending Jacksonville Center
Fri 11:42:03 AM 29.7331 -83.7992 295° West 445 512 30,000 -600 Descending Jacksonville Center
Fri 11:43:03 AM 29.7864 -83.9289 295° West 450 518 29,600 -650 Descending Jacksonville Center
Fri 11:44:03 AM 29.8372 -84.0633 294° West 450 518 28,700 -850 Descending Jacksonville Center
Fri 11:45:03 AM 29.8822 -84.1814 294° West 455 524 27,900 -400 Descending Jacksonville Center
Fri 11:46:03 AM 29.9350 -84.3164 294° West 455 524 27,900  Level Jacksonville Center
Fri 11:47:03 AM 29.9856 -84.4489 294° West 455 524 27,900  Level Jacksonville Center
Fri 11:48:03 AM 30.0403 -84.5842 295° West 460 529 27,900  Level Jacksonville Center
Fri 11:49:03 AM 30.0928 -84.7194 294° West 460 529 27,900  Level Jacksonville Center
Fri 11:50:03 AM 30.1533 -84.8528 298° West 460 529 27,900 50 Level Jacksonville Center
Fri 11:51:03 AM 30.2203 -84.9792 302° West 460 529 28,000  Climbing Jacksonville Center
Fri 11:52:03 AM 30.2869 -85.1033 302° West 466 536 27,900 -50 Descending Jacksonville Center
Fri 11:53:03 AM 30.3600 -85.2325 303° West 471 542 27,900  Level Jacksonville Center
Fri 11:54:03 AM 30.4306 -85.3547 304° West 471 542 27,900  Level Jacksonville Center
Fri 11:55:03 AM 30.4992 -85.4819 302° West 471 542 27,900 -150 Level Jacksonville Center
Fri 11:56:03 AM 30.5675 -85.6042 303° West 459 528 27,600 -650 Descending Jacksonville Center
Fri 11:57:03 AM 30.6378 -85.7319 303° West 459 528 26,600 -850 Descending Jacksonville Center
Fri 11:58:03 AM 30.7081 -85.8572 303° West 459 528 25,900 -300 Descending Jacksonville Center
Fri 11:59:03 AM 30.7803 -85.9828 304° West 464 534 26,000 50 Climbing Jacksonville Center
Fri 12:00:03 PM 30.8542 -86.1108 304° West 464 534 26,000  Level Jacksonville Center
Fri 12:01:03 PM 30.9242 -86.2319 304° West 464 534 26,000  Level Jacksonville Center
Fri 12:02:03 PM 30.9664 -86.3692 290° West 464 534 26,000  Level Jacksonville Center
Fri 12:03:03 PM 30.9625 -86.5142 268° West 441 507 26,000 -50 Level Jacksonville Center
Fri 12:04:03 PM 30.9583 -86.6522 268° West 441 507 25,900  Descending Jacksonville Center
Fri 12:05:03 PM 30.9583 -86.7950 270° West 441 507 26,000 50 Climbing Jacksonville Center
Fri 12:06:03 PM 30.9622 -86.9333 272° West 435 501 26,000  Level Jacksonville Center
Fri 12:07:03 PM 30.9642 -87.0714 271° West 435 501 26,000  Level Jacksonville Center
Fri 12:08:47 PM 30.9658 -87.3222 271° West 431 496 26,000  Level Houston Center
Fri 12:09:49 PM 30.9686 -87.4436 272° West 380 437 26,000  Level Houston Center
Fri 12:10:50 PM 30.9703 -87.5664 271° West 378 435 26,000  Level Houston Center
Fri 12:11:52 PM 30.9717 -87.6956 271° West 380 437 26,000  Level Houston Center
Fri 12:12:53 PM 30.9731 -87.8206 271° West 385 443 26,000  Level Houston Center
Fri 12:13:55 PM 30.9747 -87.9439 271° West 383 441 26,000 -49 Level Houston Center
Fri 12:14:56 PM 30.9758 -88.0639 271° West 374 430 25,900 -49 Descending Houston Center
Fri 12:15:57 PM 30.9500 -88.1728 255° West 367 422 25,900 -683 Level Houston Center
Fri 12:16:59 PM 30.8944 -88.2722 237° Southwest 367 422 24,500 -1,854 Descending Houston Center
Fri 12:18:00 PM 30.8261 -88.3886 236° Southwest 363 418 22,100 -2,146 Descending Houston Center
Fri 12:19:02 PM 30.7708 -88.4794 235° Southwest 348 400 20,100 -1,016 Descending Houston Center
Fri 12:20:04 PM 30.7244 -88.5739 240° Southwest 341 392 20,000 -49 Descending Houston Center
Fri 12:21:05 PM 30.7033 -88.6789 257° West 336 387 20,000  Level Houston Center
Fri 12:22:07 PM 30.6794 -88.7800 255° West 328 377 20,000  Level Houston Center
Fri 12:23:08 PM 30.6528 -88.8761 252° West 316 364 20,000 -49 Level Houston Center
Fri 12:24:10 PM 30.6233 -88.9686 250° West 314 361 19,900 -1,073 Descending Houston Center
Fri 12:25:11 PM 30.5714 -89.0542 235° Southwest 324 373 17,800 -2,195 Descending Houston Center
Fri 12:26:13 PM 30.5211 -89.1650 242° Southwest 324 373 15,400 -2,146 Descending Houston Center
Fri 12:27:14 PM 30.4803 -89.2547 242° Southwest 318 366 13,400 -2,000 Descending Houston Center
Fri 12:28:16 PM 30.4383 -89.3464 242° Southwest 318 366 11,300 -1,636 Descending Houston Center
Fri 12:28:42 PM 30.4194 -89.3897 243° Southwest 317 365 11,000 -393 Descending Houston Center
Fri 12:29:17 PM 30.3972 -89.4339 240° Southwest 313 360 10,900  Descending Houston Center
Fri 12:30:13 PM 30.3550 -89.5206 241° Southwest 304 350 11,000 47 Climbing Houston Center
Fri 12:31:26 PM 30.3194 -89.6356 250° West 309 356 11,000 -189 Level Houston Center
Fri 12:32:20 PM 30.2969 -89.7111 251° West 297 342 10,600 -814 Descending Houston Center
Fri 12:33:24 PM 30.2728 -89.7872 250° West 275 316 9,400 -1,392 Descending Houston Center
Fri 12:34:25 PM 30.2497 -89.8700 252° West 267 307 7,700 -1,525 Descending Houston Center
Fri 12:35:22 PM 30.2236 -89.9553 251° West 257 296 6,400 -864 Descending Houston Center
Fri 12:36:23 PM 30.2031 -90.0306 252° West 247 284 6,000 -844 Descending Houston Center
Fri 12:37:30 PM 30.1783 -90.1086 250° West 244 281 4,600 -902 Descending Houston Center
Fri 12:38:36 PM 30.1519 -90.1986 251° West 257 296 4,000 -585 Descending Houston Center
Fri 12:39:33 PM 30.1164 -90.2475 230° Southwest 238 274 3,400 -632 Descending Houston Center

Login

Don't have an account? Register now (free) for customized features, flight alerts, and more!